createdAt,value
2023-03-13T00:01:40.630Z,6.73
2023-03-13T00:04:08.627Z,4.43
2023-03-13T00:06:39.397Z,6.77
2023-03-13T00:09:09.544Z,6.30
2023-03-13T00:11:37.477Z,3.13
2023-03-13T00:14:06.339Z,4.63
2023-03-13T00:16:35.492Z,5.37
2023-03-13T00:19:03.655Z,6.27
2023-03-13T00:21:32.057Z,5.80
2023-03-13T00:24:02.186Z,3.87
2023-03-13T00:26:30.971Z,4.50
2023-03-13T00:28:58.707Z,5.80
2023-03-13T00:31:28.764Z,3.03
2023-03-13T00:34:00.837Z,4.50
2023-03-13T00:36:31.156Z,9.73
2023-03-13T00:39:01.229Z,3.37
2023-03-13T00:41:30.736Z,3.37
2023-03-13T00:43:59.244Z,3.40
2023-03-13T00:46:29.162Z,4.17
2023-03-13T00:48:57.399Z,5.30
2023-03-13T00:51:26.715Z,5.47
2023-03-13T00:53:54.531Z,4.67
2023-03-13T00:56:24.173Z,6.53
2023-03-13T00:58:52.385Z,5.50
2023-03-13T01:01:21.948Z,2.80
2023-03-13T01:03:51.574Z,3.20
2023-03-13T01:06:21.593Z,6.70
2023-03-13T01:08:49.801Z,4.47
2023-03-13T01:11:19.586Z,3.97
2023-03-13T01:13:49.802Z,6.13
2023-03-13T01:16:20.019Z,2.53
2023-03-13T01:18:51.925Z,4.97
2023-03-13T01:21:21.506Z,7.83
2023-03-13T01:23:50.065Z,6.70
2023-03-13T01:26:18.128Z,3.53
2023-03-13T01:28:46.298Z,6.93
2023-03-13T01:31:18.499Z,5.17
2023-03-13T01:33:47.973Z,4.10
2023-03-13T01:36:16.378Z,4.27
2023-03-13T01:38:44.473Z,3.47
2023-03-13T01:41:13.686Z,6.63
2023-03-13T01:43:41.546Z,4.13
2023-03-13T01:46:16.408Z,9.37
2023-03-13T01:48:50.254Z,4.90
2023-03-13T01:51:22.824Z,3.73
2023-03-13T01:53:55.573Z,3.50
2023-03-13T01:56:29.192Z,4.77
2023-03-13T01:58:58.935Z,7.70
2023-03-13T02:01:28.614Z,5.50
2023-03-13T02:03:58.115Z,3.60
2023-03-13T02:06:28.915Z,4.03
2023-03-13T02:09:00.470Z,3.83
2023-03-13T02:11:36.274Z,6.90
2023-03-13T02:14:05.554Z,5.00
2023-03-13T02:16:36.309Z,3.60
2023-03-13T02:19:09.632Z,7.47
2023-03-13T02:21:42.881Z,5.83
2023-03-13T02:24:18.803Z,4.60
2023-03-13T02:26:48.173Z,6.20
2023-03-13T02:29:18.289Z,3.63
2023-03-13T02:31:47.960Z,4.60
2023-03-13T02:34:19.809Z,6.30
2023-03-13T02:36:48.066Z,5.80
2023-03-13T02:39:19.439Z,4.53
2023-03-13T02:41:49.104Z,5.47
2023-03-13T02:44:16.872Z,5.23
2023-03-13T02:46:46.939Z,5.67
2023-03-13T02:49:27.403Z,4.40
2023-03-13T02:51:57.447Z,5.33
2023-03-13T02:54:29.467Z,5.43
2023-03-13T02:56:59.981Z,5.67
2023-03-13T02:59:28.084Z,7.80
2023-03-13T03:01:56.170Z,4.93
2023-03-13T03:04:25.587Z,6.43
2023-03-13T03:06:54.262Z,5.20
2023-03-13T03:09:22.828Z,7.20
2023-03-13T03:11:51.220Z,6.47
2023-03-13T03:14:20.373Z,3.57
2023-03-13T03:16:48.275Z,7.10
2023-03-13T03:19:16.149Z,5.07
2023-03-13T03:21:43.991Z,2.43
2023-03-13T03:24:12.028Z,6.20
2023-03-13T03:26:39.793Z,6.13
2023-03-13T03:29:08.176Z,5.03
2023-03-13T03:31:37.483Z,4.97
2023-03-13T03:34:05.267Z,6.77
2023-03-13T03:36:33.033Z,6.30
2023-03-13T03:39:00.806Z,4.43
2023-03-13T03:41:28.686Z,4.50
2023-03-13T03:43:56.459Z,4.90
2023-03-13T03:46:24.592Z,4.17
2023-03-13T03:48:53.686Z,5.77
2023-03-13T03:51:21.478Z,5.20
2023-03-13T03:53:49.379Z,8.23
2023-03-13T03:56:17.186Z,5.50
2023-03-13T03:58:44.976Z,4.60
2023-03-13T04:01:12.759Z,6.47
2023-03-13T04:03:40.649Z,5.30
2023-03-13T04:06:10.225Z,7.63
2023-03-13T04:08:38.020Z,4.93
2023-03-13T04:11:06.131Z,7.40
2023-03-13T04:13:34.103Z,6.77
2023-03-13T04:16:07.040Z,5.83
2023-03-13T04:18:34.790Z,4.67
2023-03-13T04:21:03.267Z,4.63
2023-03-13T04:23:32.374Z,5.50
2023-03-13T04:26:00.172Z,5.97
2023-03-13T04:28:27.979Z,4.97
2023-03-13T04:30:57.223Z,4.03
2023-03-13T04:33:25.247Z,6.03
2023-03-13T04:35:53.101Z,6.80
2023-03-13T04:38:21.091Z,8.50
2023-03-13T04:40:50.508Z,6.93
2023-03-13T04:43:18.334Z,4.23
2023-03-13T04:45:46.441Z,2.80
2023-03-13T04:48:14.534Z,3.13
2023-03-13T04:50:42.406Z,3.53
2023-03-13T04:53:10.238Z,4.80
2023-03-13T04:55:37.981Z,7.13
2023-03-13T04:58:07.092Z,3.20
2023-03-13T05:00:34.867Z,3.63
2023-03-13T05:03:02.664Z,4.37
2023-03-13T05:05:30.525Z,3.30
2023-03-13T05:07:58.306Z,3.67
2023-03-13T05:10:26.170Z,3.43
2023-03-13T05:12:53.966Z,3.20
2023-03-13T05:15:23.091Z,3.00
2023-03-13T05:17:52.598Z,4.10
2023-03-13T05:20:22.039Z,4.33
2023-03-13T05:22:51.766Z,5.43
2023-03-13T05:25:19.569Z,1.93
2023-03-13T05:27:47.338Z,4.17
2023-03-13T05:30:15.273Z,4.33
2023-03-13T05:32:44.399Z,6.00
2023-03-13T05:35:12.203Z,2.60
2023-03-13T05:37:41.434Z,5.23
2023-03-13T05:40:10.712Z,3.93
2023-03-13T05:42:38.612Z,3.10
2023-03-13T05:45:08.675Z,3.07
2023-03-13T05:47:36.768Z,6.57
2023-03-13T05:50:07.764Z,4.63
2023-03-13T05:52:35.829Z,4.37
2023-03-13T05:55:03.609Z,7.63
2023-03-13T05:57:31.367Z,4.33
2023-03-13T05:59:59.480Z,2.30
2023-03-13T06:02:27.261Z,4.90
2023-03-13T06:04:56.249Z,7.23
2023-03-13T06:07:25.485Z,4.93
2023-03-13T06:09:53.232Z,3.77
2023-03-13T06:12:21.008Z,4.77
2023-03-13T06:14:48.795Z,4.67
2023-03-13T06:17:16.644Z,3.20
2023-03-13T06:19:44.422Z,4.67
2023-03-13T06:22:12.267Z,2.83
2023-03-13T06:24:41.461Z,2.33
2023-03-13T06:27:09.387Z,3.43
2023-03-13T06:29:37.179Z,3.43
2023-03-13T06:32:05.576Z,4.23
2023-03-13T06:34:33.448Z,1.77
2023-03-13T06:37:01.272Z,4.17
2023-03-13T06:39:29.344Z,2.90
2023-03-13T06:41:58.446Z,4.40
2023-03-13T06:44:26.737Z,2.93
2023-03-13T06:46:54.574Z,3.63
2023-03-13T06:49:22.341Z,3.60
2023-03-13T06:51:50.118Z,3.13
2023-03-13T06:54:17.920Z,4.93
2023-03-13T06:56:45.713Z,4.47
2023-03-13T06:59:14.797Z,3.03
2023-03-13T07:01:42.563Z,3.90
2023-03-13T07:04:13.608Z,4.80
2023-03-13T07:06:41.594Z,4.00
2023-03-13T07:09:10.233Z,3.97
2023-03-13T07:11:38.004Z,5.37
2023-03-13T07:14:16.606Z,4.67
2023-03-13T07:16:47.130Z,5.00
2023-03-13T07:19:15.593Z,3.20
2023-03-13T07:21:44.004Z,4.57
2023-03-13T07:24:11.985Z,5.67
2023-03-13T07:26:42.676Z,3.83
2023-03-13T07:29:16.428Z,3.77
2023-03-13T07:31:44.291Z,5.40
2023-03-13T07:34:13.438Z,3.43
2023-03-13T07:36:41.479Z,4.47
2023-03-13T07:39:09.403Z,2.40
2023-03-13T07:41:38.936Z,3.30
2023-03-13T07:44:07.472Z,3.97
2023-03-13T07:46:35.241Z,4.93
2023-03-13T07:49:02.966Z,2.87
2023-03-13T07:51:42.962Z,5.90
2023-03-13T07:54:12.197Z,3.40
2023-03-13T07:56:40.305Z,3.17
2023-03-13T07:59:08.216Z,3.87
2023-03-13T08:01:36.442Z,9.43
2023-03-13T08:04:05.571Z,13.67
2023-03-13T08:06:36.524Z,4.60
2023-03-13T08:09:05.402Z,5.10
2023-03-13T08:11:33.232Z,5.20
2023-03-13T08:14:01.063Z,8.90
2023-03-13T08:16:30.251Z,16.17
2023-03-13T08:18:59.759Z,6.47
2023-03-13T08:21:29.719Z,5.13
2023-03-13T08:24:01.129Z,3.20
2023-03-13T08:26:31.053Z,3.03
2023-03-13T08:29:00.276Z,2.97
2023-03-13T08:31:30.194Z,5.97
2023-03-13T08:33:59.195Z,2.47
2023-03-13T08:36:28.759Z,3.73
2023-03-13T08:39:01.639Z,4.17
2023-03-13T08:41:31.290Z,3.23
2023-03-13T08:43:59.222Z,3.50
2023-03-13T08:46:27.354Z,3.03
2023-03-13T08:48:55.860Z,3.87
2023-03-13T08:51:25.218Z,3.50
2023-03-13T08:53:53.586Z,2.70
2023-03-13T08:56:25.149Z,2.70
2023-03-13T08:58:54.456Z,1.83
2023-03-13T09:01:24.216Z,4.03
2023-03-13T09:03:52.648Z,4.53
2023-03-13T09:06:20.545Z,3.17
2023-03-13T09:08:48.677Z,1.63
2023-03-13T09:11:18.655Z,2.70
2023-03-13T09:13:50.100Z,4.43
2023-03-13T09:16:20.130Z,2.17
2023-03-13T09:18:48.592Z,5.83
2023-03-13T09:21:18.457Z,3.90
2023-03-13T09:23:47.266Z,4.43
2023-03-13T09:26:16.519Z,2.57
2023-03-13T09:28:44.616Z,4.93
2023-03-13T09:31:15.602Z,2.10
2023-03-13T09:33:44.051Z,1.73
2023-03-13T09:36:12.766Z,2.37
2023-03-13T09:38:41.640Z,1.27
2023-03-13T09:41:22.956Z,1.53
2023-03-13T09:43:54.934Z,0.80
2023-03-13T09:46:28.971Z,0.97
2023-03-13T09:49:00.670Z,1.70
2023-03-13T09:51:31.770Z,1.80
2023-03-13T09:54:03.299Z,2.03
2023-03-13T09:56:34.857Z,2.10
2023-03-13T09:59:10.789Z,1.53
2023-03-13T10:01:42.069Z,0.83
2023-03-13T10:04:25.258Z,1.60
2023-03-13T10:06:54.202Z,0.90
2023-03-13T10:09:28.061Z,1.37
2023-03-13T10:12:02.164Z,0.83
2023-03-13T10:14:32.682Z,1.47
2023-03-13T10:17:08.471Z,1.17
2023-03-13T10:19:38.811Z,2.80
2023-03-13T10:22:14.106Z,9.03
2023-03-13T10:24:48.283Z,7.80
2023-03-13T10:27:16.562Z,5.87
2023-03-13T10:29:44.615Z,2.33
2023-03-13T10:32:16.427Z,3.90
2023-03-13T10:34:51.388Z,4.80
2023-03-13T10:37:23.925Z,3.33
2023-03-13T10:39:51.833Z,3.93
2023-03-13T10:42:25.390Z,2.37
2023-03-13T10:44:58.849Z,2.40
2023-03-13T10:47:28.662Z,2.93
2023-03-13T10:49:58.673Z,4.60
2023-03-13T10:52:36.029Z,3.83
2023-03-13T10:55:06.950Z,3.03
2023-03-13T10:57:36.309Z,1.27
2023-03-13T11:00:10.795Z,1.40
2023-03-13T11:02:40.813Z,1.37
2023-03-13T11:05:31.843Z,0.80
2023-03-13T11:07:59.635Z,1.07
2023-03-13T11:10:29.745Z,1.10
2023-03-13T11:12:59.497Z,0.93
2023-03-13T11:15:33.484Z,1.17
2023-03-13T11:18:11.610Z,1.47
2023-03-13T11:20:40.946Z,1.53
2023-03-13T11:23:20.578Z,1.90
2023-03-13T11:26:01.049Z,1.57
2023-03-13T11:28:37.099Z,1.97
2023-03-13T11:31:10.884Z,2.60
2023-03-13T11:33:53.222Z,4.33
2023-03-13T11:36:25.473Z,1.97
2023-03-13T11:38:56.385Z,3.23
2023-03-13T11:41:52.186Z,2.20
2023-03-13T11:44:30.110Z,1.30
2023-03-13T11:47:20.235Z,1.43
2023-03-13T11:50:27.209Z,1.53
2023-03-13T11:53:27.911Z,1.10
2023-03-13T11:56:07.059Z,1.57
2023-03-13T11:59:03.638Z,1.03
2023-03-13T12:01:35.636Z,1.33
2023-03-13T12:04:12.602Z,1.07
2023-03-13T12:06:45.604Z,0.60
2023-03-13T12:09:20.544Z,0.97
2023-03-13T12:11:55.794Z,1.00
2023-03-13T12:14:30.097Z,0.67
2023-03-13T12:17:01.790Z,1.90
2023-03-13T12:19:34.987Z,1.20
2023-03-13T12:22:14.627Z,1.07
2023-03-13T12:24:47.590Z,1.70
2023-03-13T12:27:21.739Z,0.80
2023-03-13T12:29:56.668Z,0.73
2023-03-13T12:32:30.524Z,1.30
2023-03-13T12:35:07.633Z,0.80
2023-03-13T12:37:42.716Z,1.67
2023-03-13T12:40:22.317Z,1.20
2023-03-13T12:42:56.026Z,1.70
2023-03-13T12:45:27.039Z,1.00
2023-03-13T12:48:24.508Z,1.47
2023-03-13T12:51:05.978Z,1.10
2023-03-13T12:53:47.507Z,0.80
2023-03-13T12:56:42.346Z,1.07
2023-03-13T12:59:16.066Z,1.40
2023-03-13T13:01:46.622Z,0.73
2023-03-13T13:04:17.281Z,1.43
2023-03-13T13:07:01.686Z,1.00
2023-03-13T13:09:32.592Z,2.00
2023-03-13T13:12:04.021Z,0.90
2023-03-13T13:15:04.850Z,3.33
2023-03-13T13:18:14.740Z,1.50
2023-03-13T13:20:48.509Z,1.37
2023-03-13T13:23:37.361Z,1.50
2023-03-13T13:26:48.266Z,1.73
2023-03-13T13:29:58.856Z,1.83
2023-03-13T13:32:42.845Z,1.83
2023-03-13T13:35:32.057Z,1.10
2023-03-13T13:38:23.310Z,1.70
2023-03-13T13:41:00.747Z,1.30
2023-03-13T13:43:32.401Z,1.60
2023-03-13T13:46:05.892Z,1.73
2023-03-13T13:48:37.813Z,1.77
2023-03-13T13:51:25.045Z,1.03
2023-03-13T13:53:59.422Z,1.50
2023-03-13T13:56:43.803Z,2.23
2023-03-13T13:59:45.016Z,3.70
2023-03-13T14:02:19.874Z,2.50
2023-03-13T14:04:56.065Z,1.67
2023-03-13T14:07:31.076Z,1.10
2023-03-13T14:10:08.376Z,1.43
2023-03-13T14:12:37.951Z,1.47
2023-03-13T14:15:12.940Z,2.23
2023-03-13T14:17:42.323Z,6.87
2023-03-13T14:20:28.087Z,1.10
2023-03-13T14:22:59.480Z,1.13
2023-03-13T14:25:40.814Z,1.70
2023-03-13T14:28:17.400Z,2.20
2023-03-13T14:30:45.479Z,1.97
2023-03-13T14:33:13.335Z,1.27
2023-03-13T14:35:43.316Z,1.53
2023-03-13T14:38:18.029Z,1.33
2023-03-13T14:40:46.075Z,1.20
2023-03-13T14:43:22.382Z,1.27
2023-03-13T14:45:50.926Z,1.40
2023-03-13T14:48:23.375Z,1.20
2023-03-13T14:51:12.555Z,1.77
2023-03-13T14:53:55.319Z,1.17
2023-03-13T14:56:32.681Z,1.20
2023-03-13T14:59:17.313Z,1.30
2023-03-13T15:01:45.843Z,1.10
2023-03-13T15:04:13.702Z,2.13
2023-03-13T15:06:42.968Z,1.83
2023-03-13T15:09:20.040Z,2.67
2023-03-13T15:11:56.711Z,1.63
2023-03-13T15:14:37.062Z,1.47
2023-03-13T15:17:11.055Z,2.20
2023-03-13T15:19:38.821Z,1.57
2023-03-13T15:22:13.228Z,5.07
2023-03-13T15:24:40.949Z,2.43
2023-03-13T15:27:16.757Z,1.57
2023-03-13T15:29:44.927Z,2.50
2023-03-13T15:32:19.977Z,1.80
2023-03-13T15:34:47.730Z,2.17
2023-03-13T15:37:16.886Z,3.63
2023-03-13T15:39:44.929Z,3.37
2023-03-13T15:42:12.675Z,3.50
2023-03-13T15:44:40.406Z,2.93
2023-03-13T15:47:11.678Z,2.50
2023-03-13T15:49:39.441Z,2.50
2023-03-13T15:52:18.788Z,1.30
2023-03-13T15:54:47.256Z,2.73
2023-03-13T15:57:16.981Z,2.70
2023-03-13T15:59:45.665Z,1.97
2023-03-13T16:02:16.964Z,3.47
2023-03-13T16:04:45.569Z,1.30
2023-03-13T16:07:16.431Z,1.60
2023-03-13T16:09:45.212Z,2.20
2023-03-13T16:12:13.441Z,1.47
2023-03-13T16:14:42.103Z,1.70
2023-03-13T16:17:16.196Z,1.10
2023-03-13T16:19:44.340Z,2.67
2023-03-13T16:22:12.766Z,1.30
2023-03-13T16:24:42.065Z,1.67
2023-03-13T16:27:17.388Z,4.07
2023-03-13T16:29:46.293Z,1.83
2023-03-13T16:32:18.446Z,1.20
2023-03-13T16:34:46.233Z,1.20
2023-03-13T16:37:14.844Z,2.07
2023-03-13T16:39:44.591Z,3.07
2023-03-13T16:42:12.872Z,1.60
2023-03-13T16:44:41.190Z,1.97
2023-03-13T16:47:20.480Z,2.30
2023-03-13T16:49:48.522Z,1.50
2023-03-13T16:52:17.867Z,2.83
2023-03-13T16:54:47.895Z,1.20
2023-03-13T16:57:18.945Z,2.67
2023-03-13T16:59:46.740Z,1.53
2023-03-13T17:02:16.597Z,2.40
2023-03-13T17:04:45.162Z,1.47
2023-03-13T17:07:18.929Z,2.33
2023-03-13T17:09:48.095Z,2.03
2023-03-13T17:12:15.941Z,1.30
2023-03-13T17:14:43.779Z,2.20
2023-03-13T17:17:14.016Z,3.67
2023-03-13T17:19:41.774Z,3.83
2023-03-13T17:22:12.526Z,1.67
2023-03-13T17:24:40.566Z,2.60
2023-03-13T17:27:13.867Z,2.43
2023-03-13T17:29:41.871Z,2.60
2023-03-13T17:32:11.291Z,3.07
2023-03-13T17:34:39.652Z,3.70
2023-03-13T17:37:15.296Z,2.73
2023-03-13T17:39:44.240Z,8.73
2023-03-13T17:42:13.898Z,2.60
2023-03-13T17:44:42.190Z,1.73
2023-03-13T17:47:15.482Z,1.60
2023-03-13T17:49:43.586Z,1.57
2023-03-13T17:52:15.083Z,1.13
2023-03-13T17:54:43.404Z,1.17
2023-03-13T17:57:18.454Z,2.00
2023-03-13T17:59:46.418Z,1.97
2023-03-13T18:02:16.111Z,1.50
2023-03-13T18:04:44.861Z,5.53
2023-03-13T18:07:17.913Z,2.80
2023-03-13T18:09:47.420Z,1.40
2023-03-13T18:12:16.909Z,2.40
2023-03-13T18:14:44.897Z,2.83
2023-03-13T18:17:17.226Z,1.70
2023-03-13T18:19:45.500Z,2.27
2023-03-13T18:22:15.309Z,2.27
2023-03-13T18:24:43.535Z,3.17
2023-03-13T18:27:13.203Z,1.40
2023-03-13T18:29:43.518Z,1.40
2023-03-13T18:32:14.263Z,2.60
2023-03-13T18:34:42.860Z,4.37
2023-03-13T18:37:20.225Z,2.27
2023-03-13T18:39:49.793Z,3.20
2023-03-13T18:42:17.670Z,1.97
2023-03-13T18:44:46.852Z,1.87
2023-03-13T18:47:16.678Z,2.73
2023-03-13T18:49:44.792Z,1.30
2023-03-13T18:52:13.130Z,5.13
2023-03-13T18:54:40.905Z,1.67
2023-03-13T18:57:13.735Z,3.57
2023-03-13T18:59:41.606Z,2.30
2023-03-13T19:02:14.609Z,5.03
2023-03-13T19:04:42.954Z,3.07
2023-03-13T19:07:14.760Z,1.73
2023-03-13T19:09:44.254Z,2.03
2023-03-13T19:12:15.306Z,1.83
2023-03-13T19:14:43.297Z,1.60
2023-03-13T19:17:19.776Z,3.83
2023-03-13T19:19:47.556Z,1.97
2023-03-13T19:22:15.482Z,2.50
2023-03-13T19:24:43.266Z,1.53
2023-03-13T19:27:14.709Z,3.00
2023-03-13T19:29:42.469Z,3.57
2023-03-13T19:32:16.041Z,1.87
2023-03-13T19:34:44.128Z,2.70
2023-03-13T19:37:12.218Z,2.20
2023-03-13T19:39:40.026Z,1.70
2023-03-13T19:42:08.122Z,2.37
2023-03-13T19:44:36.489Z,2.20
2023-03-13T19:47:06.291Z,2.23
2023-03-13T19:49:35.400Z,3.00
2023-03-13T19:52:03.184Z,2.07
2023-03-13T19:54:30.930Z,1.03
2023-03-13T19:56:58.692Z,1.83
2023-03-13T19:59:27.588Z,1.57
2023-03-13T20:01:56.344Z,3.00
2023-03-13T20:04:24.992Z,2.27
2023-03-13T20:06:54.101Z,2.00
2023-03-13T20:09:22.972Z,1.70
2023-03-13T20:11:50.944Z,2.63
2023-03-13T20:14:18.709Z,1.80
2023-03-13T20:16:48.809Z,1.90
2023-03-13T20:19:17.167Z,1.43
2023-03-13T20:21:46.444Z,1.20
2023-03-13T20:24:16.184Z,2.70
2023-03-13T20:26:43.975Z,3.10
2023-03-13T20:29:11.738Z,2.77
2023-03-13T20:31:39.708Z,3.20
2023-03-13T20:34:07.902Z,1.87
2023-03-13T20:36:35.681Z,2.20
2023-03-13T20:39:05.378Z,2.80
2023-03-13T20:41:34.502Z,2.97
2023-03-13T20:44:02.307Z,2.67
2023-03-13T20:46:30.204Z,1.73
2023-03-13T20:48:59.000Z,1.90
2023-03-13T20:51:27.677Z,1.13
2023-03-13T20:53:55.574Z,4.30
2023-03-13T20:56:23.385Z,3.20
2023-03-13T20:58:52.520Z,3.00
2023-03-13T21:01:21.728Z,2.50
2023-03-13T21:03:50.104Z,1.83
2023-03-13T21:06:19.137Z,1.57
2023-03-13T21:08:47.745Z,2.10
2023-03-13T21:11:16.668Z,2.07
2023-03-13T21:13:44.826Z,1.60
2023-03-13T21:16:15.286Z,1.97
2023-03-13T21:18:43.769Z,3.70
2023-03-13T21:21:15.082Z,2.00
2023-03-13T21:23:43.049Z,3.40
2023-03-13T21:26:11.430Z,2.37
2023-03-13T21:28:39.248Z,2.20
2023-03-13T21:31:11.333Z,2.83
2023-03-13T21:33:41.610Z,4.13
2023-03-13T21:36:11.059Z,4.70
2023-03-13T21:38:39.347Z,3.87
2023-03-13T21:41:10.682Z,6.60
2023-03-13T21:43:41.285Z,6.97
2023-03-13T21:46:09.072Z,6.57
2023-03-13T21:48:40.551Z,16.37
2023-03-13T21:51:09.515Z,9.00
2023-03-13T21:53:37.989Z,4.83
2023-03-13T21:56:06.451Z,3.17
2023-03-13T21:58:34.311Z,2.00
2023-03-13T22:01:02.151Z,3.37
2023-03-13T22:03:31.644Z,2.57
2023-03-13T22:06:00.873Z,1.87
2023-03-13T22:08:28.709Z,1.93
2023-03-13T22:10:58.506Z,2.80
2023-03-13T22:13:26.256Z,3.13
2023-03-13T22:15:54.071Z,3.27
2023-03-13T22:18:21.816Z,2.33
2023-03-13T22:20:49.684Z,1.43
2023-03-13T22:23:18.804Z,1.23
2023-03-13T22:25:47.962Z,2.63
2023-03-13T22:28:16.022Z,1.10
2023-03-13T22:30:45.484Z,1.30
2023-03-13T22:33:13.212Z,1.03
2023-03-13T22:35:42.046Z,1.73
2023-03-13T22:38:09.812Z,1.17
2023-03-13T22:40:38.927Z,1.80
2023-03-13T22:43:06.690Z,1.67
2023-03-13T22:45:34.409Z,1.80
2023-03-13T22:48:05.996Z,1.50
2023-03-13T22:50:34.408Z,1.37
2023-03-13T22:53:02.806Z,1.10
2023-03-13T22:55:32.222Z,1.13
2023-03-13T22:58:01.795Z,1.13
2023-03-13T23:00:29.697Z,1.53
2023-03-13T23:02:57.477Z,1.10
2023-03-13T23:05:25.377Z,0.77
2023-03-13T23:07:53.168Z,1.13
2023-03-13T23:10:21.056Z,0.73
2023-03-13T23:12:48.845Z,0.80
2023-03-13T23:15:18.358Z,0.70
2023-03-13T23:17:46.120Z,1.90
2023-03-13T23:20:14.299Z,0.87
2023-03-13T23:22:43.154Z,0.30
2023-03-13T23:25:11.994Z,1.43
2023-03-13T23:27:40.040Z,0.60
2023-03-13T23:30:10.091Z,0.77
2023-03-13T23:32:40.684Z,0.60
2023-03-13T23:35:09.531Z,0.70
2023-03-13T23:37:37.374Z,0.53
2023-03-13T23:40:08.971Z,0.47
2023-03-13T23:42:36.802Z,1.37
2023-03-13T23:45:05.488Z,0.50
2023-03-13T23:47:34.759Z,0.47
2023-03-13T23:50:05.591Z,0.30
2023-03-13T23:52:35.041Z,1.27
2023-03-13T23:55:03.004Z,0.47
2023-03-13T23:57:30.905Z,0.30
